sensor_id;sensor_type;location;lat;lon;timestamp;P1;durP1;ratioP1;P2;durP2;ratioP2
76576;SDS011;65441;44.748;37.600;2023-03-14T00:01:37;5.72;;;2.28;;
76576;SDS011;65441;44.748;37.600;2023-03-14T00:04:06;7.07;;;2.88;;
76576;SDS011;65441;44.748;37.600;2023-03-14T00:06:35;5.63;;;2.25;;
76576;SDS011;65441;44.748;37.600;2023-03-14T00:09:04;7.53;;;3.28;;
76576;SDS011;65441;44.748;37.600;2023-03-14T00:11:34;10.65;;;3.70;;
76576;SDS011;65441;44.748;37.600;2023-03-14T00:14:03;8.55;;;3.13;;
76576;SDS011;65441;44.748;37.600;2023-03-14T00:16:32;10.55;;;4.13;;
76576;SDS011;65441;44.748;37.600;2023-03-14T00:19:01;9.57;;;3.70;;
76576;SDS011;65441;44.748;37.600;2023-03-14T00:21:32;8.55;;;3.78;;
76576;SDS011;65441;44.748;37.600;2023-03-14T00:24:01;10.05;;;3.78;;
76576;SDS011;65441;44.748;37.600;2023-03-14T00:26:30;6.97;;;2.60;;
76576;SDS011;65441;44.748;37.600;2023-03-14T00:29:01;7.68;;;2.42;;
76576;SDS011;65441;44.748;37.600;2023-03-14T00:31:30;8.70;;;3.13;;
76576;SDS011;65441;44.748;37.600;2023-03-14T00:33:59;7.10;;;2.75;;
76576;SDS011;65441;44.748;37.600;2023-03-14T00:36:28;5.35;;;2.03;;
76576;SDS011;65441;44.748;37.600;2023-03-14T00:38:57;10.35;;;3.35;;
76576;SDS011;65441;44.748;37.600;2023-03-14T00:41:26;7.80;;;2.63;;
76576;SDS011;65441;44.748;37.600;2023-03-14T00:43:55;8.13;;;2.85;;
76576;SDS011;65441;44.748;37.600;2023-03-14T00:46:25;9.25;;;2.80;;
76576;SDS011;65441;44.748;37.600;2023-03-14T00:48:55;5.07;;;2.15;;
76576;SDS011;65441;44.748;37.600;2023-03-14T00:51:24;7.35;;;2.88;;
76576;SDS011;65441;44.748;37.600;2023-03-14T00:53:53;12.50;;;2.88;;
76576;SDS011;65441;44.748;37.600;2023-03-14T00:56:22;6.53;;;2.90;;
76576;SDS011;65441;44.748;37.600;2023-03-14T00:58:53;7.30;;;2.88;;
76576;SDS011;65441;44.748;37.600;2023-03-14T01:01:23;8.48;;;2.67;;
76576;SDS011;65441;44.748;37.600;2023-03-14T01:03:54;10.43;;;3.25;;
76576;SDS011;65441;44.748;37.600;2023-03-14T01:06:24;6.55;;;2.25;;
76576;SDS011;65441;44.748;37.600;2023-03-14T01:08:55;6.85;;;2.80;;
76576;SDS011;65441;44.748;37.600;2023-03-14T01:11:27;6.13;;;2.20;;
76576;SDS011;65441;44.748;37.600;2023-03-14T01:13:58;6.82;;;2.20;;
76576;SDS011;65441;44.748;37.600;2023-03-14T01:16:30;10.63;;;4.15;;
76576;SDS011;65441;44.748;37.600;2023-03-14T01:19:03;5.20;;;2.35;;
76576;SDS011;65441;44.748;37.600;2023-03-14T01:21:33;5.63;;;1.73;;
76576;SDS011;65441;44.748;37.600;2023-03-14T01:24:04;8.60;;;3.35;;
76576;SDS011;65441;44.748;37.600;2023-03-14T01:26:34;9.88;;;3.05;;
76576;SDS011;65441;44.748;37.600;2023-03-14T01:29:05;5.03;;;2.15;;
76576;SDS011;65441;44.748;37.600;2023-03-14T01:31:37;4.43;;;1.60;;
76576;SDS011;65441;44.748;37.600;2023-03-14T01:34:07;8.07;;;3.20;;
76576;SDS011;65441;44.748;37.600;2023-03-14T01:36:37;6.30;;;2.58;;
76576;SDS011;65441;44.748;37.600;2023-03-14T01:39:06;8.80;;;3.22;;
76576;SDS011;65441;44.748;37.600;2023-03-14T01:41:35;9.68;;;3.72;;
76576;SDS011;65441;44.748;37.600;2023-03-14T01:44:04;5.95;;;2.13;;
76576;SDS011;65441;44.748;37.600;2023-03-14T01:46:37;8.52;;;3.47;;
76576;SDS011;65441;44.748;37.600;2023-03-14T01:52:16;11.88;;;4.38;;
76576;SDS011;65441;44.748;37.600;2023-03-14T01:54:48;7.50;;;2.72;;
76576;SDS011;65441;44.748;37.600;2023-03-14T01:57:20;8.70;;;2.90;;
76576;SDS011;65441;44.748;37.600;2023-03-14T01:59:52;11.15;;;4.30;;
76576;SDS011;65441;44.748;37.600;2023-03-14T02:02:24;13.82;;;4.53;;
76576;SDS011;65441;44.748;37.600;2023-03-14T02:04:57;12.00;;;4.72;;
76576;SDS011;65441;44.748;37.600;2023-03-14T02:07:34;11.00;;;3.88;;
76576;SDS011;65441;44.748;37.600;2023-03-14T02:10:13;12.40;;;4.95;;
76576;SDS011;65441;44.748;37.600;2023-03-14T02:12:46;9.80;;;3.28;;
76576;SDS011;65441;44.748;37.600;2023-03-14T02:15:38;11.45;;;4.80;;
76576;SDS011;65441;44.748;37.600;2023-03-14T02:18:40;17.05;;;4.68;;
76576;SDS011;65441;44.748;37.600;2023-03-14T02:21:34;8.52;;;3.42;;
76576;SDS011;65441;44.748;37.600;2023-03-14T02:24:15;10.50;;;3.85;;
76576;SDS011;65441;44.748;37.600;2023-03-14T02:27:07;11.00;;;4.38;;
76576;SDS011;65441;44.748;37.600;2023-03-14T02:29:47;11.10;;;4.22;;
76576;SDS011;65441;44.748;37.600;2023-03-14T02:32:19;12.35;;;4.47;;
76576;SDS011;65441;44.748;37.600;2023-03-14T02:34:51;8.82;;;3.50;;
76576;SDS011;65441;44.748;37.600;2023-03-14T02:37:30;7.65;;;3.03;;
76576;SDS011;65441;44.748;37.600;2023-03-14T02:40:07;9.38;;;3.15;;
76576;SDS011;65441;44.748;37.600;2023-03-14T02:42:44;8.45;;;2.97;;
76576;SDS011;65441;44.748;37.600;2023-03-14T02:45:35;7.05;;;3.47;;
76576;SDS011;65441;44.748;37.600;2023-03-14T02:49:16;10.52;;;3.80;;
76576;SDS011;65441;44.748;37.600;2023-03-14T02:54:29;6.32;;;2.25;;
76576;SDS011;65441;44.748;37.600;2023-03-14T02:57:05;8.18;;;3.17;;
76576;SDS011;65441;44.748;37.600;2023-03-14T02:59:39;8.93;;;2.92;;
76576;SDS011;65441;44.748;37.600;2023-03-14T03:02:15;8.70;;;2.97;;
76576;SDS011;65441;44.748;37.600;2023-03-14T03:04:47;9.35;;;2.78;;
76576;SDS011;65441;44.748;37.600;2023-03-14T03:07:18;8.57;;;3.30;;
76576;SDS011;65441;44.748;37.600;2023-03-14T03:09:47;10.05;;;3.70;;
76576;SDS011;65441;44.748;37.600;2023-03-14T03:12:16;8.88;;;3.03;;
76576;SDS011;65441;44.748;37.600;2023-03-14T03:14:47;6.05;;;2.55;;
76576;SDS011;65441;44.748;37.600;2023-03-14T03:17:16;11.00;;;3.40;;
76576;SDS011;65441;44.748;37.600;2023-03-14T03:19:46;5.80;;;2.28;;
76576;SDS011;65441;44.748;37.600;2023-03-14T03:22:15;7.50;;;2.42;;
76576;SDS011;65441;44.748;37.600;2023-03-14T03:24:44;7.05;;;2.10;;
76576;SDS011;65441;44.748;37.600;2023-03-14T03:27:13;10.70;;;3.17;;
76576;SDS011;65441;44.748;37.600;2023-03-14T03:29:42;8.43;;;2.72;;
76576;SDS011;65441;44.748;37.600;2023-03-14T03:32:12;6.43;;;1.92;;
76576;SDS011;65441;44.748;37.600;2023-03-14T03:34:41;5.72;;;1.75;;
76576;SDS011;65441;44.748;37.600;2023-03-14T03:37:10;8.98;;;2.65;;
76576;SDS011;65441;44.748;37.600;2023-03-14T03:39:41;7.72;;;2.50;;
76576;SDS011;65441;44.748;37.600;2023-03-14T03:42:13;6.07;;;1.85;;
76576;SDS011;65441;44.748;37.600;2023-03-14T03:44:42;7.38;;;2.42;;
76576;SDS011;65441;44.748;37.600;2023-03-14T03:47:12;7.78;;;2.85;;
76576;SDS011;65441;44.748;37.600;2023-03-14T03:49:42;6.07;;;2.05;;
76576;SDS011;65441;44.748;37.600;2023-03-14T03:52:12;7.20;;;2.38;;
76576;SDS011;65441;44.748;37.600;2023-03-14T03:54:41;9.13;;;3.20;;
76576;SDS011;65441;44.748;37.600;2023-03-14T03:57:10;7.68;;;2.42;;
76576;SDS011;65441;44.748;37.600;2023-03-14T03:59:39;9.68;;;3.08;;
76576;SDS011;65441;44.748;37.600;2023-03-14T04:02:10;6.35;;;2.30;;
76576;SDS011;65441;44.748;37.600;2023-03-14T04:04:41;8.88;;;3.20;;
76576;SDS011;65441;44.748;37.600;2023-03-14T04:07:10;8.88;;;3.47;;
76576;SDS011;65441;44.748;37.600;2023-03-14T04:09:41;4.85;;;1.63;;
76576;SDS011;65441;44.748;37.600;2023-03-14T04:12:30;7.90;;;2.58;;
76576;SDS011;65441;44.748;37.600;2023-03-14T04:15:06;7.53;;;2.42;;
76576;SDS011;65441;44.748;37.600;2023-03-14T04:17:37;7.78;;;2.60;;
76576;SDS011;65441;44.748;37.600;2023-03-14T04:20:09;8.88;;;2.75;;
76576;SDS011;65441;44.748;37.600;2023-03-14T04:22:40;8.52;;;3.20;;
76576;SDS011;65441;44.748;37.600;2023-03-14T04:25:10;9.25;;;3.08;;
76576;SDS011;65441;44.748;37.600;2023-03-14T04:27:45;8.95;;;3.45;;
76576;SDS011;65441;44.748;37.600;2023-03-14T04:30:27;10.02;;;3.58;;
76576;SDS011;65441;44.748;37.600;2023-03-14T04:33:00;12.13;;;3.42;;
76576;SDS011;65441;44.748;37.600;2023-03-14T04:35:33;10.50;;;3.78;;
76576;SDS011;65441;44.748;37.600;2023-03-14T04:38:07;8.80;;;2.90;;
76576;SDS011;65441;44.748;37.600;2023-03-14T04:40:36;8.73;;;2.63;;
76576;SDS011;65441;44.748;37.600;2023-03-14T04:43:07;8.52;;;3.10;;
76576;SDS011;65441;44.748;37.600;2023-03-14T04:45:43;9.57;;;3.55;;
76576;SDS011;65441;44.748;37.600;2023-03-14T04:48:13;9.27;;;3.67;;
76576;SDS011;65441;44.748;37.600;2023-03-14T04:50:45;10.70;;;3.50;;
76576;SDS011;65441;44.748;37.600;2023-03-14T04:53:15;11.40;;;4.32;;
76576;SDS011;65441;44.748;37.600;2023-03-14T04:55:47;11.35;;;4.50;;
76576;SDS011;65441;44.748;37.600;2023-03-14T04:58:18;7.60;;;3.30;;
76576;SDS011;65441;44.748;37.600;2023-03-14T05:00:49;9.95;;;3.97;;
76576;SDS011;65441;44.748;37.600;2023-03-14T05:03:37;8.90;;;2.80;;
76576;SDS011;65441;44.748;37.600;2023-03-14T05:06:37;7.90;;;3.58;;
76576;SDS011;65441;44.748;37.600;2023-03-14T05:09:25;10.50;;;3.28;;
76576;SDS011;65441;44.748;37.600;2023-03-14T05:12:24;8.23;;;3.35;;
76576;SDS011;65441;44.748;37.600;2023-03-14T05:15:11;8.48;;;3.35;;
76576;SDS011;65441;44.748;37.600;2023-03-14T05:17:53;7.50;;;2.75;;
76576;SDS011;65441;44.748;37.600;2023-03-14T05:20:41;9.00;;;3.13;;
76576;SDS011;65441;44.748;37.600;2023-03-14T05:23:23;9.38;;;3.42;;
76576;SDS011;65441;44.748;37.600;2023-03-14T05:26:14;9.95;;;3.35;;
76576;SDS011;65441;44.748;37.600;2023-03-14T05:29:07;7.75;;;3.33;;
76576;SDS011;65441;44.748;37.600;2023-03-14T05:31:59;6.57;;;2.45;;
76576;SDS011;65441;44.748;37.600;2023-03-14T05:34:52;8.63;;;3.10;;
76576;SDS011;65441;44.748;37.600;2023-03-14T05:37:38;9.68;;;3.72;;
76576;SDS011;65441;44.748;37.600;2023-03-14T05:40:36;10.02;;;3.40;;
76576;SDS011;65441;44.748;37.600;2023-03-14T05:43:24;8.45;;;3.63;;
76576;SDS011;65441;44.748;37.600;2023-03-14T05:46:12;10.18;;;4.00;;
76576;SDS011;65441;44.748;37.600;2023-03-14T05:48:58;8.25;;;2.92;;
76576;SDS011;65441;44.748;37.600;2023-03-14T05:51:48;10.98;;;4.05;;
76576;SDS011;65441;44.748;37.600;2023-03-14T05:54:28;11.45;;;3.88;;
76576;SDS011;65441;44.748;37.600;2023-03-14T05:57:16;12.23;;;3.70;;
76576;SDS011;65441;44.748;37.600;2023-03-14T06:00:04;9.55;;;3.95;;
76576;SDS011;65441;44.748;37.600;2023-03-14T06:02:42;8.40;;;3.38;;
76576;SDS011;65441;44.748;37.600;2023-03-14T06:05:19;9.25;;;3.40;;
76576;SDS011;65441;44.748;37.600;2023-03-14T06:07:51;6.97;;;2.15;;
76576;SDS011;65441;44.748;37.600;2023-03-14T06:10:21;9.25;;;3.75;;
76576;SDS011;65441;44.748;37.600;2023-03-14T06:12:51;12.18;;;4.38;;
76576;SDS011;65441;44.748;37.600;2023-03-14T06:15:21;10.15;;;4.00;;
76576;SDS011;65441;44.748;37.600;2023-03-14T06:17:53;10.40;;;3.53;;
76576;SDS011;65441;44.748;37.600;2023-03-14T06:20:23;11.05;;;4.47;;
76576;SDS011;65441;44.748;37.600;2023-03-14T06:22:53;9.43;;;3.50;;
76576;SDS011;65441;44.748;37.600;2023-03-14T06:25:22;12.18;;;4.38;;
76576;SDS011;65441;44.748;37.600;2023-03-14T06:27:52;11.05;;;4.05;;
76576;SDS011;65441;44.748;37.600;2023-03-14T06:30:22;10.45;;;3.60;;
76576;SDS011;65441;44.748;37.600;2023-03-14T06:32:50;10.70;;;3.88;;
76576;SDS011;65441;44.748;37.600;2023-03-14T06:35:21;10.57;;;4.50;;
76576;SDS011;65441;44.748;37.600;2023-03-14T06:37:51;9.27;;;4.28;;
76576;SDS011;65441;44.748;37.600;2023-03-14T06:40:20;10.70;;;3.88;;
76576;SDS011;65441;44.748;37.600;2023-03-14T06:42:56;12.88;;;3.67;;
76576;SDS011;65441;44.748;37.600;2023-03-14T06:45:27;10.68;;;4.32;;
76576;SDS011;65441;44.748;37.600;2023-03-14T06:47:58;9.95;;;4.07;;
76576;SDS011;65441;44.748;37.600;2023-03-14T06:50:36;9.25;;;3.63;;
76576;SDS011;65441;44.748;37.600;2023-03-14T06:53:05;11.00;;;4.35;;
76576;SDS011;65441;44.748;37.600;2023-03-14T06:55:37;13.85;;;4.90;;
76576;SDS011;65441;44.748;37.600;2023-03-14T06:58:09;12.15;;;4.25;;
76576;SDS011;65441;44.748;37.600;2023-03-14T07:00:42;8.93;;;4.13;;
76576;SDS011;65441;44.748;37.600;2023-03-14T07:03:14;12.45;;;4.15;;
76576;SDS011;65441;44.748;37.600;2023-03-14T07:05:51;10.73;;;3.92;;
76576;SDS011;65441;44.748;37.600;2023-03-14T07:08:20;10.77;;;4.45;;
76576;SDS011;65441;44.748;37.600;2023-03-14T07:10:49;10.73;;;4.25;;
76576;SDS011;65441;44.748;37.600;2023-03-14T07:13:21;12.32;;;4.60;;
76576;SDS011;65441;44.748;37.600;2023-03-14T07:15:56;14.88;;;5.57;;
76576;SDS011;65441;44.748;37.600;2023-03-14T07:18:25;10.48;;;3.70;;
76576;SDS011;65441;44.748;37.600;2023-03-14T07:20:56;11.38;;;4.68;;
76576;SDS011;65441;44.748;37.600;2023-03-14T07:23:25;24.20;;;6.95;;
76576;SDS011;65441;44.748;37.600;2023-03-14T07:25:54;12.48;;;3.97;;
76576;SDS011;65441;44.748;37.600;2023-03-14T07:28:27;11.88;;;4.75;;
76576;SDS011;65441;44.748;37.600;2023-03-14T07:31:01;10.07;;;3.72;;
76576;SDS011;65441;44.748;37.600;2023-03-14T07:33:32;11.05;;;4.10;;
76576;SDS011;65441;44.748;37.600;2023-03-14T07:36:03;9.85;;;3.30;;
76576;SDS011;65441;44.748;37.600;2023-03-14T07:38:32;9.85;;;3.67;;
76576;SDS011;65441;44.748;37.600;2023-03-14T07:41:20;9.82;;;3.70;;
76576;SDS011;65441;44.748;37.600;2023-03-14T07:44:23;9.65;;;3.78;;
76576;SDS011;65441;44.748;37.600;2023-03-14T07:46:52;11.57;;;3.50;;
76576;SDS011;65441;44.748;37.600;2023-03-14T07:49:21;8.93;;;3.75;;
76576;SDS011;65441;44.748;37.600;2023-03-14T07:51:50;9.88;;;3.65;;
76576;SDS011;65441;44.748;37.600;2023-03-14T07:54:19;9.60;;;4.05;;
76576;SDS011;65441;44.748;37.600;2023-03-14T07:56:48;10.38;;;3.75;;
76576;SDS011;65441;44.748;37.600;2023-03-14T07:59:18;9.45;;;3.55;;
76576;SDS011;65441;44.748;37.600;2023-03-14T08:01:49;8.70;;;3.70;;
76576;SDS011;65441;44.748;37.600;2023-03-14T08:04:17;8.27;;;3.33;;
76576;SDS011;65441;44.748;37.600;2023-03-14T08:06:46;10.20;;;3.63;;
76576;SDS011;65441;44.748;37.600;2023-03-14T08:09:15;8.80;;;3.17;;
76576;SDS011;65441;44.748;37.600;2023-03-14T08:11:44;9.00;;;4.30;;
76576;SDS011;65441;44.748;37.600;2023-03-14T08:14:12;9.88;;;3.95;;
76576;SDS011;65441;44.748;37.600;2023-03-14T08:16:44;12.13;;;3.40;;
76576;SDS011;65441;44.748;37.600;2023-03-14T08:19:17;9.27;;;3.63;;
76576;SDS011;65441;44.748;37.600;2023-03-14T08:21:46;9.77;;;3.60;;
76576;SDS011;65441;44.748;37.600;2023-03-14T08:24:15;10.68;;;3.80;;
76576;SDS011;65441;44.748;37.600;2023-03-14T08:26:44;9.73;;;3.42;;
76576;SDS011;65441;44.748;37.600;2023-03-14T08:29:13;10.32;;;3.58;;
76576;SDS011;65441;44.748;37.600;2023-03-14T08:31:42;8.27;;;3.55;;
76576;SDS011;65441;44.748;37.600;2023-03-14T08:34:13;9.73;;;3.35;;
76576;SDS011;65441;44.748;37.600;2023-03-14T08:36:43;8.88;;;3.38;;
76576;SDS011;65441;44.748;37.600;2023-03-14T08:39:12;7.38;;;3.05;;
76576;SDS011;65441;44.748;37.600;2023-03-14T08:41:41;10.73;;;3.60;;
76576;SDS011;65441;44.748;37.600;2023-03-14T08:44:11;11.32;;;3.47;;
76576;SDS011;65441;44.748;37.600;2023-03-14T08:46:39;9.95;;;3.42;;
76576;SDS011;65441;44.748;37.600;2023-03-14T08:49:11;10.15;;;3.85;;
76576;SDS011;65441;44.748;37.600;2023-03-14T08:51:40;8.18;;;3.95;;
76576;SDS011;65441;44.748;37.600;2023-03-14T08:54:11;7.45;;;3.15;;
76576;SDS011;65441;44.748;37.600;2023-03-14T08:56:40;8.75;;;3.17;;
76576;SDS011;65441;44.748;37.600;2023-03-14T08:59:09;8.55;;;3.10;;
76576;SDS011;65441;44.748;37.600;2023-03-14T09:01:38;7.28;;;2.92;;
76576;SDS011;65441;44.748;37.600;2023-03-14T09:04:07;6.75;;;3.00;;
76576;SDS011;65441;44.748;37.600;2023-03-14T09:06:36;7.65;;;3.10;;
76576;SDS011;65441;44.748;37.600;2023-03-14T09:09:06;7.20;;;2.60;;
76576;SDS011;65441;44.748;37.600;2023-03-14T09:11:35;9.13;;;2.70;;
76576;SDS011;65441;44.748;37.600;2023-03-14T09:14:04;6.65;;;2.67;;
76576;SDS011;65441;44.748;37.600;2023-03-14T09:16:33;7.00;;;2.80;;
76576;SDS011;65441;44.748;37.600;2023-03-14T09:19:01;8.85;;;2.85;;
76576;SDS011;65441;44.748;37.600;2023-03-14T09:21:32;8.00;;;2.80;;
76576;SDS011;65441;44.748;37.600;2023-03-14T09:24:01;8.40;;;3.10;;
76576;SDS011;65441;44.748;37.600;2023-03-14T09:26:31;7.68;;;2.90;;
76576;SDS011;65441;44.748;37.600;2023-03-14T09:29:00;7.43;;;2.47;;
76576;SDS011;65441;44.748;37.600;2023-03-14T09:31:29;8.88;;;3.22;;
76576;SDS011;65441;44.748;37.600;2023-03-14T09:34:00;8.27;;;3.20;;
76576;SDS011;65441;44.748;37.600;2023-03-14T09:36:29;7.00;;;2.70;;
76576;SDS011;65441;44.748;37.600;2023-03-14T09:38:58;9.13;;;3.20;;
76576;SDS011;65441;44.748;37.600;2023-03-14T09:41:27;6.95;;;2.75;;
76576;SDS011;65441;44.748;37.600;2023-03-14T09:44:02;8.30;;;2.72;;
76576;SDS011;65441;44.748;37.600;2023-03-14T09:46:35;7.55;;;3.17;;
76576;SDS011;65441;44.748;37.600;2023-03-14T09:49:09;9.88;;;3.22;;
76576;SDS011;65441;44.748;37.600;2023-03-14T09:51:40;7.45;;;2.42;;
76576;SDS011;65441;44.748;37.600;2023-03-14T09:54:16;6.32;;;2.42;;
76576;SDS011;65441;44.748;37.600;2023-03-14T09:56:57;9.60;;;2.65;;
76576;SDS011;65441;44.748;37.600;2023-03-14T09:59:26;8.50;;;2.90;;
76576;SDS011;65441;44.748;37.600;2023-03-14T10:01:58;11.52;;;3.22;;
76576;SDS011;65441;44.748;37.600;2023-03-14T10:04:29;9.65;;;2.78;;
76576;SDS011;65441;44.748;37.600;2023-03-14T10:06:59;7.03;;;2.45;;
76576;SDS011;65441;44.748;37.600;2023-03-14T10:09:28;7.97;;;2.78;;
76576;SDS011;65441;44.748;37.600;2023-03-14T10:11:59;8.70;;;2.55;;
76576;SDS011;65441;44.748;37.600;2023-03-14T10:14:29;8.05;;;2.90;;
76576;SDS011;65441;44.748;37.600;2023-03-14T10:17:06;6.53;;;2.47;;
76576;SDS011;65441;44.748;37.600;2023-03-14T10:19:38;7.95;;;3.08;;
76576;SDS011;65441;44.748;37.600;2023-03-14T10:22:21;8.63;;;3.13;;
76576;SDS011;65441;44.748;37.600;2023-03-14T10:24:54;8.05;;;3.00;;
76576;SDS011;65441;44.748;37.600;2023-03-14T10:27:29;6.65;;;2.50;;
76576;SDS011;65441;44.748;37.600;2023-03-14T10:30:00;8.60;;;2.53;;
76576;SDS011;65441;44.748;37.600;2023-03-14T10:32:33;7.45;;;3.00;;
76576;SDS011;65441;44.748;37.600;2023-03-14T10:35:05;7.75;;;2.75;;
76576;SDS011;65441;44.748;37.600;2023-03-14T10:37:36;8.13;;;3.20;;
76576;SDS011;65441;44.748;37.600;2023-03-14T10:40:19;6.90;;;3.03;;
76576;SDS011;65441;44.748;37.600;2023-03-14T10:42:54;8.55;;;3.25;;
76576;SDS011;65441;44.748;37.600;2023-03-14T10:45:33;9.73;;;2.80;;
76576;SDS011;65441;44.748;37.600;2023-03-14T10:48:20;7.18;;;2.70;;
76576;SDS011;65441;44.748;37.600;2023-03-14T10:50:56;10.27;;;2.85;;
76576;SDS011;65441;44.748;37.600;2023-03-14T10:53:25;8.88;;;2.67;;
76576;SDS011;65441;44.748;37.600;2023-03-14T10:55:55;6.13;;;2.50;;
76576;SDS011;65441;44.748;37.600;2023-03-14T10:58:27;8.00;;;2.60;;
76576;SDS011;65441;44.748;37.600;2023-03-14T11:01:02;9.18;;;2.70;;
76576;SDS011;65441;44.748;37.600;2023-03-14T11:03:40;9.85;;;3.33;;
76576;SDS011;65441;44.748;37.600;2023-03-14T11:06:17;6.97;;;2.53;;
76576;SDS011;65441;44.748;37.600;2023-03-14T11:08:53;6.85;;;2.20;;
76576;SDS011;65441;44.748;37.600;2023-03-14T11:11:31;5.88;;;2.40;;
76576;SDS011;65441;44.748;37.600;2023-03-14T11:14:04;7.70;;;2.70;;
76576;SDS011;65441;44.748;37.600;2023-03-14T11:16:43;6.05;;;2.40;;
76576;SDS011;65441;44.748;37.600;2023-03-14T11:19:23;6.90;;;2.22;;
76576;SDS011;65441;44.748;37.600;2023-03-14T11:22:14;6.03;;;2.30;;
76576;SDS011;65441;44.748;37.600;2023-03-14T11:24:58;6.05;;;2.03;;
76576;SDS011;65441;44.748;37.600;2023-03-14T11:27:43;9.90;;;2.00;;
76576;SDS011;65441;44.748;37.600;2023-03-14T11:30:21;5.18;;;1.88;;
76576;SDS011;65441;44.748;37.600;2023-03-14T11:32:59;5.75;;;2.10;;
76576;SDS011;65441;44.748;37.600;2023-03-14T11:35:33;7.25;;;2.15;;
76576;SDS011;65441;44.748;37.600;2023-03-14T11:38:12;7.20;;;1.85;;
76576;SDS011;65441;44.748;37.600;2023-03-14T11:40:46;7.60;;;1.95;;
76576;SDS011;65441;44.748;37.600;2023-03-14T11:43:20;4.85;;;1.90;;
76576;SDS011;65441;44.748;37.600;2023-03-14T11:46:01;4.38;;;1.50;;
76576;SDS011;65441;44.748;37.600;2023-03-14T11:48:36;5.00;;;1.85;;
76576;SDS011;65441;44.748;37.600;2023-03-14T11:51:12;6.38;;;2.15;;
76576;SDS011;65441;44.748;37.600;2023-03-14T11:53:49;8.88;;;2.03;;
76576;SDS011;65441;44.748;37.600;2023-03-14T11:56:28;5.85;;;2.20;;
76576;SDS011;65441;44.748;37.600;2023-03-14T11:59:02;5.10;;;2.00;;
76576;SDS011;65441;44.748;37.600;2023-03-14T12:01:40;5.20;;;1.92;;
76576;SDS011;65441;44.748;37.600;2023-03-14T12:04:20;5.88;;;1.83;;
76576;SDS011;65441;44.748;37.600;2023-03-14T12:06:59;8.93;;;1.90;;
76576;SDS011;65441;44.748;37.600;2023-03-14T12:09:31;5.38;;;1.83;;
76576;SDS011;65441;44.748;37.600;2023-03-14T12:12:01;7.90;;;1.60;;
76576;SDS011;65441;44.748;37.600;2023-03-14T12:14:34;6.07;;;1.90;;
76576;SDS011;65441;44.748;37.600;2023-03-14T12:17:06;5.35;;;1.85;;
76576;SDS011;65441;44.748;37.600;2023-03-14T12:19:47;5.70;;;1.80;;
76576;SDS011;65441;44.748;37.600;2023-03-14T12:22:28;6.82;;;2.05;;
76576;SDS011;65441;44.748;37.600;2023-03-14T12:25:00;5.18;;;1.73;;
76576;SDS011;65441;44.748;37.600;2023-03-14T12:27:47;5.13;;;1.80;;
76576;SDS011;65441;44.748;37.600;2023-03-14T12:30:23;5.13;;;1.80;;
76576;SDS011;65441;44.748;37.600;2023-03-14T12:36:02;6.63;;;1.77;;
76576;SDS011;65441;44.748;37.600;2023-03-14T12:41:24;4.45;;;1.67;;
76576;SDS011;65441;44.748;37.600;2023-03-14T12:43:59;5.85;;;1.45;;
76576;SDS011;65441;44.748;37.600;2023-03-14T12:50:16;5.78;;;1.73;;
76576;SDS011;65441;44.748;37.600;2023-03-14T12:52:54;5.15;;;1.60;;
76576;SDS011;65441;44.748;37.600;2023-03-14T12:55:47;9.23;;;1.80;;
76576;SDS011;65441;44.748;37.600;2023-03-14T12:58:23;5.13;;;1.52;;
76576;SDS011;65441;44.748;37.600;2023-03-14T13:00:59;4.18;;;1.33;;
76576;SDS011;65441;44.748;37.600;2023-03-14T13:03:36;5.40;;;1.83;;
76576;SDS011;65441;44.748;37.600;2023-03-14T13:06:08;4.95;;;1.80;;
76576;SDS011;65441;44.748;37.600;2023-03-14T13:08:41;5.30;;;1.80;;
76576;SDS011;65441;44.748;37.600;2023-03-14T13:11:12;5.38;;;1.60;;
76576;SDS011;65441;44.748;37.600;2023-03-14T13:13:45;4.57;;;1.60;;
76576;SDS011;65441;44.748;37.600;2023-03-14T13:16:17;5.20;;;1.48;;
76576;SDS011;65441;44.748;37.600;2023-03-14T13:18:48;6.10;;;1.65;;
76576;SDS011;65441;44.748;37.600;2023-03-14T13:21:20;7.15;;;1.60;;
76576;SDS011;65441;44.748;37.600;2023-03-14T13:23:57;7.15;;;1.70;;
76576;SDS011;65441;44.748;37.600;2023-03-14T13:26:32;5.00;;;1.40;;
76576;SDS011;65441;44.748;37.600;2023-03-14T13:29:14;5.82;;;1.70;;
76576;SDS011;65441;44.748;37.600;2023-03-14T13:31:45;11.23;;;1.90;;
76576;SDS011;65441;44.748;37.600;2023-03-14T13:34:15;4.90;;;1.77;;
76576;SDS011;65441;44.748;37.600;2023-03-14T13:36:51;5.15;;;1.60;;
76576;SDS011;65441;44.748;37.600;2023-03-14T13:39:25;5.25;;;1.55;;
76576;SDS011;65441;44.748;37.600;2023-03-14T13:41:57;6.93;;;1.70;;
76576;SDS011;65441;44.748;37.600;2023-03-14T13:44:30;4.57;;;1.80;;
76576;SDS011;65441;44.748;37.600;2023-03-14T13:47:00;3.92;;;1.25;;
76576;SDS011;65441;44.748;37.600;2023-03-14T13:49:31;5.72;;;1.83;;
76576;SDS011;65441;44.748;37.600;2023-03-14T13:52:28;6.07;;;1.70;;
76576;SDS011;65441;44.748;37.600;2023-03-14T13:55:00;4.43;;;1.52;;
76576;SDS011;65441;44.748;37.600;2023-03-14T13:57:42;7.25;;;2.28;;
76576;SDS011;65441;44.748;37.600;2023-03-14T14:00:17;7.20;;;2.17;;
76576;SDS011;65441;44.748;37.600;2023-03-14T14:02:47;6.32;;;1.85;;
76576;SDS011;65441;44.748;37.600;2023-03-14T14:05:16;5.60;;;1.98;;
76576;SDS011;65441;44.748;37.600;2023-03-14T14:07:45;7.63;;;2.63;;
76576;SDS011;65441;44.748;37.600;2023-03-14T14:10:18;7.25;;;2.05;;
76576;SDS011;65441;44.748;37.600;2023-03-14T14:12:48;8.60;;;2.22;;
76576;SDS011;65441;44.748;37.600;2023-03-14T14:15:21;10.48;;;4.03;;
76576;SDS011;65441;44.748;37.600;2023-03-14T14:17:57;7.72;;;2.78;;
76576;SDS011;65441;44.748;37.600;2023-03-14T14:20:30;7.38;;;2.30;;
76576;SDS011;65441;44.748;37.600;2023-03-14T14:23:03;4.68;;;1.55;;
76576;SDS011;65441;44.748;37.600;2023-03-14T14:28:17;5.90;;;2.25;;
76576;SDS011;65441;44.748;37.600;2023-03-14T14:30:59;9.07;;;2.70;;
76576;SDS011;65441;44.748;37.600;2023-03-14T14:33:30;6.45;;;2.35;;
76576;SDS011;65441;44.748;37.600;2023-03-14T14:36:13;7.32;;;2.33;;
76576;SDS011;65441;44.748;37.600;2023-03-14T14:38:49;6.30;;;2.20;;
76576;SDS011;65441;44.748;37.600;2023-03-14T14:43:49;7.35;;;2.30;;
76576;SDS011;65441;44.748;37.600;2023-03-14T14:46:20;8.75;;;3.45;;
76576;SDS011;65441;44.748;37.600;2023-03-14T14:48:50;6.47;;;2.22;;
76576;SDS011;65441;44.748;37.600;2023-03-14T14:51:31;6.18;;;2.42;;
76576;SDS011;65441;44.748;37.600;2023-03-14T14:54:10;6.72;;;2.47;;
76576;SDS011;65441;44.748;37.600;2023-03-14T14:56:44;9.45;;;2.97;;
76576;SDS011;65441;44.748;37.600;2023-03-14T14:59:21;7.78;;;2.65;;
76576;SDS011;65441;44.748;37.600;2023-03-14T15:01:57;8.07;;;2.53;;
76576;SDS011;65441;44.748;37.600;2023-03-14T15:04:27;7.75;;;2.25;;
76576;SDS011;65441;44.748;37.600;2023-03-14T15:06:59;6.97;;;2.20;;
76576;SDS011;65441;44.748;37.600;2023-03-14T15:09:28;5.82;;;2.20;;
76576;SDS011;65441;44.748;37.600;2023-03-14T15:11:59;5.75;;;2.20;;
76576;SDS011;65441;44.748;37.600;2023-03-14T15:14:28;6.53;;;2.13;;
76576;SDS011;65441;44.748;37.600;2023-03-14T15:16:57;8.77;;;2.38;;
76576;SDS011;65441;44.748;37.600;2023-03-14T15:19:26;7.07;;;2.40;;
76576;SDS011;65441;44.748;37.600;2023-03-14T15:21:57;9.05;;;2.50;;
76576;SDS011;65441;44.748;37.600;2023-03-14T15:24:26;6.72;;;2.60;;
76576;SDS011;65441;44.748;37.600;2023-03-14T15:26:55;6.03;;;1.88;;
76576;SDS011;65441;44.748;37.600;2023-03-14T15:29:26;7.60;;;2.03;;
76576;SDS011;65441;44.748;37.600;2023-03-14T15:31:55;6.97;;;2.38;;